Flight Track Log - Related Links

Times and Time Zones

All times are in EDT time to prevent confusion due to time zone crossing. See the UAL1519 flight status page for this flight to view local times or setup timezone preferences in your user account.

Time Position Orientation Groundspeed Altitude Reporting Facility
EDT Latitude Longitude Course Direction KTS MPH feet Rate Location/Type
Fri 02:32:09 PM 40.7130 -74.1430 54° Northeast 181 208 2,400  Level FlightAware ADS-B
Fri 02:32:37 PM 40.7290 -74.1160 52° Northeast 233 268 3,000 913 Climbing FlightAware ADS-B
Fri 02:32:55 PM 40.7454 -74.0990 38° Northeast 241 277 3,100 273 Climbing FlightAware ADS-B
Fri 02:32:59 PM 40.7497 -74.0973 17° North 242 278 3,100  Level FlightAware ADS-B
Fri 02:33:02 PM 40.7531 -74.0966 North 242 278 3,100 429 Level FlightAware ADS-B
Fri 02:33:13 PM 40.7650 -74.0978 356° North 242 278 3,200 857 Climbing FlightAware ADS-B
Fri 02:33:16 PM 40.7684 -74.0993 342° North 243 280 3,300 1,000 Climbing FlightAware ADS-B
Fri 02:33:19 PM 40.7717 -74.1014 334° Northwest 247 284 3,300 857 Level FlightAware ADS-B
Fri 02:33:23 PM 40.7751 -74.1043 327° Northwest 248 285 3,400 2,250 Climbing FlightAware ADS-B
Fri 02:33:27 PM 40.7783 -74.1081 318° Northwest 249 287 3,600 3,000 Climbing FlightAware ADS-B
Fri 02:33:31 PM 40.7811 -74.1126 309° West 250 288 3,800 2,571 Climbing FlightAware ADS-B
Fri 02:33:34 PM 40.7831 -74.1163 306° West 254 292 3,900 3,000 Climbing FlightAware ADS-B
Fri 02:33:39 PM 40.7857 -74.1234 296° West 256 295 4,200 3,750 Climbing FlightAware ADS-B
Fri 02:33:42 PM 40.7871 -74.1290 288° West 258 297 4,400 4,364 Climbing FlightAware ADS-B
Fri 02:33:50 PM 40.7890 -74.1410 282° West 258 297 5,000 4,174 Climbing FlightAware ADS-B
Fri 02:34:05 PM 40.7915 -74.1648 278° West 259 298 6,000 3,778 Climbing FlightAware ADS-B
Fri 02:34:17 PM 40.7934 -74.1836 278° West 260 299 6,700 3,391 Climbing FlightAware ADS-B
Fri 02:34:28 PM 40.7952 -74.2008 278° West 263 303 7,300 2,526 Climbing FlightAware ADS-B
Fri 02:34:36 PM 40.7962 -74.2128 276° West 260 299 7,500 1,500 Climbing FlightAware ADS-B
Fri 02:34:40 PM 40.7964 -74.2195 272° West 274 315 7,600 1,500 Climbing FlightAware ADS-B
Fri 02:34:48 PM 40.7952 -74.2339 264° West 278 320 7,800 2,842 Climbing FlightAware ADS-B
Fri 02:34:59 PM 40.7927 -74.2518 260° West 277 319 8,500 3,500 Climbing FlightAware ADS-B
Fri 02:35:00 PM 40.7926 -74.2528 262° West 277 319 8,500 2,842 Level FlightAware ADS-B
Fri 02:35:18 PM 40.7879 -74.2836 259° West 283 326 9,400 2,270 Climbing FlightAware ADS-B
Fri 02:35:37 PM 40.7835 -74.3155 260° West 295 339 9,900 1,059 Climbing FlightAware ADS-B
Fri 02:35:52 PM 40.7793 -74.3447 259° West 325 374 10,000 255 Climbing FlightAware ADS-B
Fri 02:36:24 PM 40.7704 -74.4088 260° West 332 382 10,100 122 Climbing FlightAware ADS-B
Fri 02:36:41 PM 40.7660 -74.4417 260° West 327 376 10,100  Level FlightAware ADS-B
Fri 02:37:05 PM 40.7600 -74.4857 260° West 302 348 10,100  Level FlightAware ADS-B
Fri 02:37:36 PM 40.7531 -74.5383 260° West 282 325 10,100  Level FlightAware ADS-B
Fri 02:38:04 PM 40.7471 -74.5858 261° West 288 331 10,100  Level FlightAware ADS-B
Fri 02:38:07 PM 40.7466 -74.5896 260° West 284 327 10,100  Level FlightAware ADS-B
Fri 02:38:14 PM 40.7445 -74.6020 257° West 282 325 10,100  Level FlightAware ADS-B
Fri 02:38:28 PM 40.7375 -74.6250 248° West 278 320 10,100  Level FlightAware ADS-B
Fri 02:38:36 PM 40.7325 -74.6353 237° Southwest 277 319 10,100  Level FlightAware ADS-B
Fri 02:38:43 PM 40.7265 -74.6449 230° Southwest 276 318 10,100 2,053 Level FlightAware ADS-B
Fri 02:39:14 PM 40.6966 -74.6791 221° Southwest 278 320 11,400 2,806 Climbing FlightAware ADS-B
Fri 02:39:45 PM 40.6657 -74.7127 220° Southwest 285 328 13,000 3,290 Climbing FlightAware ADS-B
Fri 02:40:16 PM 40.6340 -74.7470 219° Southwest 285 328 14,800 3,246 Climbing FlightAware ADS-B
Fri 02:40:46 PM 40.6027 -74.7805 219° Southwest 292 336 16,300 2,200 Climbing FlightAware ADS-B
Fri 02:41:16 PM 40.5696 -74.8164 219° Southwest 327 376 17,000 787 Climbing FlightAware ADS-B
Fri 02:41:47 PM 40.5313 -74.8576 219° Southwest 372 428 17,100 787 Climbing FlightAware ADS-B
Fri 02:42:17 PM 40.4894 -74.9027 219° Southwest 397 457 17,800 1,600 Climbing FlightAware ADS-B
Fri 02:42:47 PM 40.4464 -74.9490 219° Southwest 412 474 18,700 1,964 Climbing FlightAware ADS-B
Fri 02:43:12 PM 40.4108 -74.9915 222° Southwest 419 482 19,600 2,316 Climbing FlightAware ADS-B
Fri 02:43:44 PM 40.3681 -75.0504 226° Southwest 423 487 20,900 3,290 Climbing FlightAware ADS-B
Fri 02:44:14 PM 40.3286 -75.1065 227° Southwest 402 463 23,000 2,557 Climbing FlightAware ADS-B
Fri 02:44:45 PM 40.2884 -75.1633 227° Southwest 422 486 23,500 1,452 Climbing FlightAware ADS-B
Fri 02:45:16 PM 40.2470 -75.2211 227° Southwest 427 491 24,500 1,967 Climbing FlightAware ADS-B
Fri 02:45:46 PM 40.2060 -75.2787 227° Southwest 430 495 25,500 1,935 Climbing FlightAware ADS-B
Fri 02:46:18 PM 40.1636 -75.3377 227° Southwest 432 497 26,500 2,091 Climbing FlightAware ADS-B
Fri 02:46:52 PM 40.1171 -75.4024 227° Southwest 425 489 27,800 2,308 Climbing FlightAware ADS-B
Fri 02:47:23 PM 40.0757 -75.4603 227° Southwest 420 483 29,000 1,905 Climbing FlightAware ADS-B
Fri 02:47:55 PM 40.0330 -75.5195 227° Southwest 425 489 29,800 1,619 Climbing FlightAware ADS-B
Fri 02:48:26 PM 39.9916 -75.5768 227° Southwest 427 491 30,700 1,839 Climbing FlightAware ADS-B
Fri 02:48:57 PM 39.9488 -75.6361 227° Southwest 425 489 31,700 2,032 Climbing FlightAware ADS-B
Fri 02:49:28 PM 39.9089 -75.6942 228° Southwest 423 487 32,800 2,032 Climbing FlightAware ADS-B
Fri 02:49:59 PM 39.8713 -75.7538 231° Southwest 418 481 33,800 1,161 Climbing FlightAware ADS-B
Fri 02:50:30 PM 39.8328 -75.8154 231° Southwest 419 482 34,000 197 Climbing FlightAware ADS-B
Fri 02:51:00 PM 39.7961 -75.8741 231° Southwest 419 482 34,000  Level FlightAware ADS-B
Fri 02:51:36 PM 39.7527 -75.9435 231° Southwest 423 487 34,000  Level FlightAware ADS-B
Fri 02:52:07 PM 39.7142 -76.0048 231° Southwest 423 487 34,000  Level FlightAware ADS-B
Fri 02:52:38 PM 39.6761 -76.0652 231° Southwest 422 486 34,000  Level FlightAware ADS-B
Fri 02:53:09 PM 39.6375 -76.1265 231° Southwest 422 486 34,000  Level FlightAware ADS-B
Fri 02:53:39 PM 39.6004 -76.1852 231° Southwest 422 486 34,000  Level FlightAware ADS-B
Fri 02:54:11 PM 39.5601 -76.2473 230° Southwest 422 486 34,000  Level FlightAware ADS-B
Fri 02:54:44 PM 39.5189 -76.3103 230° Southwest 420 483 34,000  Level FlightAware ADS-B
Fri 02:55:16 PM 39.4784 -76.3723 230° Southwest 419 482 34,000  Level FlightAware ADS-B
Fri 02:55:51 PM 39.4361 -76.4380 230° Southwest 419 482 34,000  Level FlightAware ADS-B
Fri 02:56:22 PM 39.3975 -76.4995 231° Southwest 419 482 34,000  Level FlightAware ADS-B
Fri 02:56:53 PM 39.3594 -76.5598 231° Southwest 421 484 34,000  Level FlightAware ADS-B
Fri 02:57:25 PM 39.3206 -76.6207 231° Southwest 423 487 34,000  Level FlightAware ADS-B
Fri 02:57:55 PM 39.2823 -76.6806 230° Southwest 424 488 34,000  Level FlightAware ADS-B
Fri 02:58:27 PM 39.2427 -76.7428 231° Southwest 425 489 34,000  Level FlightAware ADS-B
Fri 02:58:58 PM 39.2044 -76.8021 230° Southwest 428 493 34,000  Level FlightAware ADS-B
Fri 02:59:29 PM 39.1647 -76.8638 230° Southwest 430 495 34,000  Level FlightAware ADS-B
Fri 03:00:00 PM 39.1251 -76.9256 230° Southwest 430 495 34,000  Level FlightAware ADS-B
Fri 03:00:33 PM 39.0842 -76.9890 230° Southwest 430 495 34,000  Level FlightAware ADS-B
Fri 03:00:48 PM 39.0641 -77.0186 229° Southwest 429 494 34,000  Level FlightAware ADS-B
Fri 03:01:21 PM 39.0174 -77.0768 224° Southwest 426 490 34,000  Level FlightAware ADS-B
Fri 03:01:53 PM 38.9701 -77.1295 221° Southwest 426 490 34,000  Level FlightAware ADS-B
Fri 03:02:31 PM 38.9127 -77.1919 220° Southwest 428 493 34,000  Level FlightAware ADS-B
Fri 03:03:14 PM 38.8475 -77.2629 220° Southwest 430 495 34,000  Level FlightAware ADS-B
Fri 03:03:46 PM 38.7991 -77.3157 220° Southwest 430 495 34,000  Level FlightAware ADS-B
Fri 03:04:24 PM 38.7416 -77.3782 220° Southwest 432 497 34,000  Level FlightAware ADS-B
Fri 03:05:04 PM 38.6808 -77.4444 220° Southwest 434 499 34,000  Level FlightAware ADS-B
Fri 03:05:40 PM 38.6247 -77.5053 220° Southwest 436 502 34,000  Level FlightAware ADS-B
Fri 03:06:11 PM 38.5771 -77.5568 220° Southwest 439 505 34,000  Level FlightAware ADS-B
Fri 03:06:42 PM 38.5291 -77.6088 220° Southwest 441 507 34,000  Level FlightAware ADS-B
Fri 03:07:16 PM 38.4762 -77.6656 220° Southwest 443 510 34,000  Level FlightAware ADS-B
Fri 03:08:22 PM 38.3734 -77.7762 220° Southwest 443 510 34,000  Level FlightAware ADS-B
Fri 03:09:10 PM 38.2970 -77.8579 220° Southwest 442 509 34,000  Level FlightAware ADS-B
Fri 03:09:45 PM 38.2430 -77.9160 220° Southwest 442 509 34,000  Level FlightAware ADS-B
Fri 03:10:19 PM 38.1910 -77.9710 220° Southwest 443 510 34,000  Level FlightAware ADS-B
Fri 03:11:01 PM 38.1240 -78.0420 220° Southwest 445 512 34,000  Level FlightAware ADS-B
Fri 03:11:51 PM 38.0470 -78.1230 220° Southwest 446 513 34,000  Level FlightAware ADS-B
Fri 03:12:31 PM 37.9810 -78.1920 219° Southwest 444 511 34,000  Level FlightAware ADS-B
Fri 03:13:14 PM 37.9120 -78.2560 216° Southwest 445 512 34,000  Level FlightAware ADS-B
Fri 03:13:57 PM 37.8400 -78.3240 217° Southwest 443 510 34,000  Level FlightAware ADS-B
Fri 03:14:39 PM 37.7700 -78.3900 217° Southwest 443 510 34,000  Level FlightAware ADS-B
Fri 03:15:21 PM 37.7020 -78.4550 217° Southwest 442 509 34,000  Level FlightAware ADS-B
Fri 03:16:05 PM 37.6300 -78.5230 217° Southwest 442 509 34,000  Level FlightAware ADS-B
Fri 03:16:45 PM 37.5650 -78.5840 217° Southwest 442 509 34,000  Level FlightAware ADS-B
Fri 03:17:25 PM 37.5000 -78.6450 217° Southwest 445 512 34,000  Level FlightAware ADS-B
Fri 03:18:09 PM 37.4260 -78.7140 217° Southwest 453 521 34,000  Level FlightAware ADS-B
Fri 03:18:51 PM 37.3560 -78.7800 217° Southwest 455 524 34,000  Level FlightAware ADS-B
Fri 03:19:33 PM 37.2830 -78.8480 217° Southwest 457 526 34,000  Level FlightAware ADS-B
Fri 03:20:11 PM 37.2180 -78.9080 216° Southwest 461 531 34,000  Level FlightAware ADS-B
Fri 03:20:50 PM 37.1560 -78.9660 217° Southwest 460 529 34,000  Level FlightAware ADS-B
Fri 03:21:49 PM 37.0580 -79.0560 216° Southwest 462 532 34,000  Level FlightAware ADS-B
Fri 03:22:33 PM 36.9760 -79.1320 217° Southwest 466 536 34,000 -571 Level FlightAware ADS-B
Fri 03:23:13 PM 36.9050 -79.1980 217° Southwest 471 542 33,200 -805 Descending FlightAware ADS-B
Fri 03:23:55 PM 36.8370 -79.2600 216° Southwest 473 544 32,900 -767 Descending FlightAware ADS-B
Fri 03:24:39 PM 36.7580 -79.3320 216° Southwest 454 522 32,100 -422 Descending FlightAware ADS-B
Fri 03:26:03 PM 36.6310 -79.4480 216° Southwest 450 518 32,000 -47 Descending FlightAware ADS-B
Fri 03:26:48 PM 36.5660 -79.5060 216° Southwest 450 518 32,000  Level FlightAware ADS-B
Fri 03:28:44 PM 36.3486 -79.6978 216° Southwest 459 528 32,000  Level Atlanta Center
Fri 03:34:27 PM 35.7100 -80.1490 216° Southwest 470 541 32,000  Level FlightAware ADS-B
Fri 03:35:05 PM 35.6320 -80.1880 202° Southwest 470 541 32,000  Level FlightAware ADS-B
Fri 03:35:51 PM 35.5410 -80.2340 202° Southwest 468 539 32,000  Level FlightAware ADS-B
Fri 03:36:35 PM 35.4530 -80.2770 202° Southwest 466 536 32,000  Level FlightAware ADS-B
Fri 03:37:17 PM 35.3680 -80.3200 202° Southwest 470 541 32,000  Level FlightAware ADS-B
Fri 03:37:59 PM 35.2840 -80.3620 202° Southwest 469 540 32,000  Level FlightAware ADS-B
Fri 03:38:39 PM 35.2020 -80.4020 202° Southwest 475 547 32,000  Level FlightAware ADS-B
Fri 03:39:23 PM 35.1130 -80.4460 202° Southwest 476 548 32,000  Level FlightAware ADS-B
Fri 03:40:07 PM 35.0230 -80.4910 202° Southwest 475 547 32,000  Level FlightAware ADS-B
Fri 03:41:01 PM 34.9720 -80.5160 202° Southwest 475 547 32,000  Level FlightAware ADS-B
Fri 03:41:42 PM 34.8300 -80.5860 202° Southwest 473 544 32,000  Level FlightAware ADS-B
Fri 03:42:24 PM 34.7510 -80.6250 202° Southwest 473 544 32,000  Level FlightAware ADS-B
Fri 03:43:04 PM 34.6730 -80.6630 202° Southwest 474 545 32,000  Level FlightAware ADS-B
Fri 03:43:47 PM 34.5770 -80.7100 202° Southwest 474 545 32,000  Level FlightAware ADS-B
Fri 03:44:27 PM 34.4970 -80.7490 202° Southwest 473 544 32,000  Level FlightAware ADS-B
Fri 03:45:53 PM 34.3880 -80.8020 202° Southwest 472 543 32,000  Level FlightAware ADS-B
Fri 03:46:39 PM 34.2260 -80.8800 202° Southwest 474 545 32,000  Level FlightAware ADS-B
Fri 03:47:22 PM 34.1390 -80.9220 202° Southwest 473 544 32,000  Level FlightAware ADS-B
Fri 03:48:02 PM 34.0590 -80.9610 202° Southwest 473 544 32,000  Level FlightAware ADS-B
Fri 03:48:42 PM 33.9850 -80.9960 201° Southwest 475 547 32,000  Level FlightAware ADS-B
Fri 03:49:24 PM 33.8900 -81.0410 201° Southwest 470 541 32,000  Level FlightAware ADS-B
Fri 03:49:59 PM 33.8250 -81.0600 194° South 475 547 32,000  Level FlightAware ADS-B
Fri 03:51:23 PM 33.7290 -81.0700 185° South 470 541 32,000  Level FlightAware ADS-B
Fri 03:51:59 PM 33.5560 -81.0840 184° South 467 537 32,000  Level FlightAware ADS-B
Fri 03:52:44 PM 33.4610 -81.0920 184° South 469 540 32,000  Level FlightAware ADS-B
Fri 03:53:29 PM 33.3610 -81.1010 184° South 470 541 32,000  Level FlightAware ADS-B
Fri 03:54:04 PM 33.2870 -81.1070 184° South 469 540 32,000  Level FlightAware ADS-B
Fri 03:54:50 PM 33.1860 -81.1160 184° South 466 536 32,000  Level FlightAware ADS-B
Fri 03:55:43 PM 33.0860 -81.1250 184° South 465 535 32,000  Level FlightAware ADS-B
Fri 03:56:25 PM 32.9830 -81.1330 184° South 462 532 32,000  Level FlightAware ADS-B
Fri 03:57:06 PM 32.8990 -81.1400 184° South 462 532 32,000  Level FlightAware ADS-B
Fri 03:57:45 PM 32.8140 -81.1470 184° South 461 531 32,000  Level FlightAware ADS-B
Fri 03:58:25 PM 32.7280 -81.1550 184° South 461 531 32,000  Level FlightAware ADS-B
Fri 03:59:05 PM 32.6450 -81.1610 183° South 460 529 32,000  Level FlightAware ADS-B
Fri 04:00:39 PM 32.4640 -81.1770 184° South 460 529 32,000  Level FlightAware ADS-B
Fri 04:01:32 PM 32.3400 -81.1870 184° South 460 529 32,000  Level FlightAware ADS-B
Fri 04:02:10 PM 32.2630 -81.1930 184° South 459 528 32,000  Level FlightAware ADS-B
Fri 04:02:55 PM 32.1680 -81.2010 184° South 463 533 32,000  Level FlightAware ADS-B
Fri 04:03:36 PM 32.0650 -81.2010 180° South 468 539 32,000  Level FlightAware ADS-B
Fri 04:04:17 PM 31.9790 -81.1980 178° South 469 540 32,000  Level FlightAware ADS-B
Fri 04:05:03 PM 31.8790 -81.1950 179° South 471 542 32,000  Level FlightAware ADS-B
Fri 04:05:45 PM 31.7840 -81.1920 178° South 472 543 32,000  Level FlightAware ADS-B
Fri 04:06:15 PM 31.7330 -81.1900 178° South 472 543 32,000  Level FlightAware ADS-B
Fri 04:06:59 PM 31.6350 -81.1870 179° South 472 543 32,000  Level FlightAware ADS-B
Fri 04:07:40 PM 31.5510 -81.1840 178° South 470 541 32,000  Level FlightAware ADS-B
Fri 04:08:20 PM 31.4500 -81.1810 179° South 470 541 32,000  Level FlightAware ADS-B
Fri 04:09:05 PM 31.3590 -81.1780 178° South 469 540 32,000  Level FlightAware ADS-B
Fri 04:10:02 PM 31.2440 -81.1750 179° South 469 540 32,000  Level FlightAware ADS-B
Fri 04:10:44 PM 31.1660 -81.1720 178° South 469 540 32,000  Level FlightAware ADS-B
Fri 04:11:58 PM 31.0300 -81.1660 178° South 469 540 32,000  Level FlightAware ADS-B
Fri 04:12:33 PM 30.9660 -81.1630 178° South 469 540 32,000  Level FlightAware ADS-B
Fri 04:13:36 PM 30.8490 -81.1590 178° South 469 540 32,000  Level FlightAware ADS-B
Fri 04:14:11 PM 30.7850 -81.1560 178° South 469 540 32,000  Level FlightAware ADS-B
Fri 04:14:59 PM 30.6960 -81.1520 178° South 469 540 32,000 -458 Level FlightAware ADS-B
Fri 04:15:35 PM 30.5160 -81.1520 180° South 32,000 -723 Level FlightAware ADS-B
Fri 04:16:22 PM 30.4060 -81.1490 179° South 466 536 31,000 -1,295 Descending FlightAware ADS-B
Fri 04:17:03 PM 30.3180 -81.1460 178° South 467 537 30,100 -1,259 Descending FlightAware ADS-B
Fri 04:17:43 PM 30.2280 -81.1430 178° South 463 533 29,300 -1,098 Descending FlightAware ADS-B
Fri 04:18:25 PM 30.1430 -81.1410 179° South 457 526 28,600 -818 Descending FlightAware ADS-B
Fri 04:19:33 PM 30.0130 -81.1360 178° South 452 520 27,800 -835 Descending FlightAware ADS-B
Fri 04:20:20 PM 30.0120 -81.1370 221° Southwest 444 511 27,000 -571 Descending FlightAware ADS-B
Fri 04:20:57 PM 29.9480 -81.1360 179° South 444 511 27,000  Level FlightAware ADS-B
Fri 04:21:46 PM 29.8620 -81.1340 179° South 444 511 27,000  Level FlightAware ADS-B
Fri 04:22:25 PM 29.7940 -81.1330 179° South 444 511 27,000  Level FlightAware ADS-B
Fri 04:23:14 PM 29.7080 -81.1310 179° South 444 511 27,000 -4,323 Level FlightAware ADS-B
Fri 04:23:58 PM 29.4756 -81.1200 179° South 420 483 20,300 -4,962 Descending Jacksonville Center
Fri 04:24:58 PM 29.3689 -81.1150 178° South 406 467 18,400 -1,950 Descending Jacksonville Center
Fri 04:25:58 PM 29.2603 -81.1122 179° South 396 456 16,400 -2,050 Descending Jacksonville Center
Fri 04:26:58 PM 29.1539 -81.1069 178° South 391 450 14,300 -2,000 Descending Jacksonville Center
Fri 04:27:58 PM 29.0514 -81.0922 173° South 385 443 12,400 -1,150 Descending Jacksonville Center
Fri 04:28:58 PM 28.9489 -81.0822 175° South 380 437 12,000 -750 Descending Jacksonville Center
Fri 04:29:58 PM 28.8531 -81.0958 187° South 363 418 10,900 -983 Descending Jacksonville Center
Fri 04:30:54 PM 28.7833 -81.1167 195° South 302 348 10,100 -1,036 Descending Orlando TRACON
Fri 04:31:48 PM 28.7000 -81.1333 190° South 294 338 9,000 -579 Descending Orlando TRACON
Fri 04:32:48 PM 28.6333 -81.1667 204° Southwest 240 276 9,000  Level Orlando TRACON
Fri 04:33:48 PM 28.5667 -81.1833 192° South 249 287 9,000 -450 Level Orlando TRACON
Fri 04:34:48 PM 28.5000 -81.1833 180° South 245 282 8,100 -1,041 Descending Orlando TRACON
Fri 04:35:49 PM 28.4333 -81.1833 180° South 243 280 6,900 -1,587 Descending Orlando TRACON
Fri 04:36:49 PM 28.3667 -81.1833 180° South 237 273 4,900 -1,700 Descending Orlando TRACON
Fri 04:37:49 PM 28.3167 -81.2167 210° Southwest 185 213 3,500 -1,400 Descending Orlando TRACON

Login

Don't have an account? Register now (free) for customized features, flight alerts, and more!